Time;durP1;ratioP1;P1;durP2;ratioP2;P2;SDS_P1;SDS_P2;PMS_P1;PMS_P2;Temp;Humidity;BMP_temperature;BMP_pressure;BME280_temperature;BME280_humidity;BME280_pressure;Samples;Min_cycle;Max_cycle;Signal;HPM_P1;HPM_P2
2022/09/30 00:05:37;;;;;;;;;;;9.50;99.90;;;;;;5013390;28;20296;-83
2022/09/30 00:08:02;;;;;;;;;;;9.50;99.90;;;;;;5015089;28;19913;-83
2022/09/30 00:10:28;;;;;;;;;;;9.50;99.90;;;;;;4997543;28;19917;-84
2022/09/30 00:12:54;;;;;;;;;;;9.50;99.90;;;;;;4997161;28;20582;-85
2022/09/30 00:15:19;;;;;;;;;;;9.40;99.90;;;;;;4997440;28;19955;-84
2022/09/30 00:17:45;;;;;;;;;;;9.40;99.90;;;;;;5014599;28;19910;-83
2022/09/30 00:20:10;;;;;;;;;;;9.40;99.90;;;;;;4997352;28;19909;-83
2022/09/30 00:22:35;;;;;;;;;;;9.40;99.90;;;;;;5014904;28;19916;-83
2022/09/30 00:25:01;;;;;;;;;;;9.50;99.90;;;;;;5015091;28;19914;-84
2022/09/30 00:27:27;;;;;;;;;;;9.50;99.90;;;;;;5014935;28;20389;-83
2022/09/30 00:29:52;;;;;;;;;;;9.40;99.90;;;;;;4997251;28;20258;-85
2022/09/30 00:32:18;;;;;;;;;;;9.40;99.90;;;;;;4997270;28;19921;-84
2022/09/30 00:34:43;;;;;;;;;;;9.40;99.90;;;;;;4996462;28;19909;-83
2022/09/30 00:37:10;;;;;;;;;;;9.30;99.90;;;;;;4996782;28;19910;-83
2022/09/30 00:39:36;;;;;;;;;;;9.30;99.90;;;;;;4997222;28;19914;-84
2022/09/30 00:42:03;;;;;;;;;;;9.30;99.90;;;;;;4996948;28;20020;-83
2022/09/30 00:44:46;;;;;;;;;;;9.30;99.90;;;;;;5014420;28;20012;-83
2022/09/30 00:47:23;;;;;;;;;;;9.30;99.90;;;;;;4997055;28;20380;-83
2022/09/30 00:49:49;;;;;;;;;;;9.30;99.90;;;;;;4997103;28;19910;-83
2022/09/30 00:52:14;;;;;;;;;;;9.40;99.90;;;;;;4998163;28;19963;-84
2022/09/30 00:54:40;;;;;;;;;;;9.40;99.90;;;;;;4997138;28;19910;-85
2022/09/30 00:57:06;;;;;;;;;;;9.30;99.90;;;;;;4996808;28;20012;-83
2022/09/30 00:59:37;;;;;;;;;;;9.30;99.90;;;;;;4997625;28;20372;-84
2022/09/30 01:02:03;;;;;;;;;;;9.30;99.90;;;;;;5014522;28;19914;-84
2022/09/30 01:04:30;;;;;;;;;;;9.20;99.90;;;;;;5014118;28;20427;-83
2022/09/30 01:06:58;;;;;;;;;;;9.20;99.90;;;;;;4996804;28;19916;-83
2022/09/30 01:09:23;;;;;;;;;;;9.20;99.90;;;;;;4997351;28;20360;-83
2022/09/30 01:11:49;;;;;;;;;;;9.20;99.90;;;;;;5014607;28;19963;-84
2022/09/30 01:14:16;;;;;;;;;;;9.20;99.90;;;;;;5015441;28;19916;-85
2022/09/30 01:17:00;;;;;;;;;;;9.10;99.90;;;;;;5014844;28;19914;-83
2022/09/30 01:19:31;;;;;;;;;;;9.10;99.90;;;;;;5015523;28;20381;-83
2022/09/30 01:22:15;;;;;;;;;;;9.10;99.90;;;;;;4997836;28;19910;-85
2022/09/30 01:24:57;;;;;;;;;;;9.10;99.90;;;;;;4997708;28;20285;-85
2022/09/30 01:27:28;;;;;;;;;;;9.10;99.90;;;;;;4997012;28;20380;-84
2022/09/30 01:30:01;;;;;;;;;;;9.10;99.90;;;;;;4996848;28;19916;-84
2022/09/30 01:32:38;;;;;;;;;;;9.10;99.90;;;;;;4997005;28;20384;-84
2022/09/30 01:35:14;;;;;;;;;;;9.10;99.90;;;;;;4996431;28;19974;-83
2022/09/30 01:37:43;;;;;;;;;;;9.00;99.90;;;;;;4996087;28;20000;-85
2022/09/30 01:40:21;;;;;;;;;;;9.00;99.90;;;;;;4996578;28;19911;-83
2022/09/30 01:42:52;;;;;;;;;;;9.00;99.90;;;;;;4995637;28;20266;-83
2022/09/30 01:45:21;;;;;;;;;;;9.00;99.90;;;;;;4995935;28;19910;-83
2022/09/30 01:47:49;;;;;;;;;;;9.00;99.90;;;;;;4997100;28;20113;-84
2022/09/30 01:50:20;;;;;;;;;;;9.00;99.90;;;;;;4997143;28;19937;-85
2022/09/30 01:53:05;;;;;;;;;;;9.00;99.90;;;;;;5014782;28;19917;-84
2022/09/30 01:55:50;;;;;;;;;;;9.00;99.90;;;;;;4996756;28;19916;-83
2022/09/30 01:58:41;;;;;;;;;;;9.00;99.90;;;;;;4996175;28;19920;-85
2022/09/30 02:01:08;;;;;;;;;;;9.00;99.90;;;;;;4997346;28;19916;-85
2022/09/30 02:03:57;;;;;;;;;;;9.00;99.90;;;;;;4997000;28;19922;-85
2022/09/30 02:06:30;;;;;;;;;;;9.00;99.90;;;;;;4986152;28;19914;-83
2022/09/30 02:08:59;;;;;;;;;;;8.90;99.90;;;;;;4996487;28;19916;-84
2022/09/30 02:11:26;;;;;;;;;;;9.00;99.90;;;;;;4996862;28;19913;-84
2022/09/30 02:13:51;;;;;;;;;;;8.90;99.90;;;;;;5014655;28;20036;-85
2022/09/30 02:16:22;;;;;;;;;;;8.90;99.90;;;;;;4997425;28;20392;-85
2022/09/30 02:18:50;;;;;;;;;;;8.90;99.90;;;;;;4997022;28;19910;-84
2022/09/30 02:21:19;;;;;;;;;;;8.90;99.90;;;;;;4996770;28;19999;-84
2022/09/30 02:23:46;;;;;;;;;;;8.90;99.90;;;;;;4996921;28;20439;-85
2022/09/30 02:26:23;;;;;;;;;;;8.90;99.90;;;;;;4996248;28;19949;-84
2022/09/30 02:28:54;;;;;;;;;;;8.90;99.90;;;;;;4997202;28;19913;-85
2022/09/30 02:31:22;;;;;;;;;;;8.90;99.90;;;;;;4996661;28;19920;-84
2022/09/30 02:33:48;;;;;;;;;;;8.80;99.90;;;;;;4996864;28;20384;-83
2022/09/30 02:36:32;;;;;;;;;;;8.80;99.90;;;;;;4996137;28;19909;-84
2022/09/30 02:39:05;;;;;;;;;;;8.80;99.90;;;;;;4995937;28;19910;-84
2022/09/30 02:41:35;;;;;;;;;;;8.80;99.90;;;;;;5013342;28;19913;-85
2022/09/30 02:44:01;;;;;;;;;;;8.70;99.90;;;;;;4995919;28;20158;-83
2022/09/30 02:46:40;;;;;;;;;;;8.70;99.90;;;;;;4995521;28;19956;-83
2022/09/30 02:49:06;;;;;;;;;;;8.70;99.90;;;;;;4996162;28;19910;-83
2022/09/30 02:51:31;;;;;;;;;;;8.70;99.90;;;;;;4996159;28;19928;-83
2022/09/30 02:54:09;;;;;;;;;;;8.70;99.90;;;;;;4996855;28;20392;-84
2022/09/30 02:56:46;;;;;;;;;;;8.70;99.90;;;;;;4996916;28;19910;-82
2022/09/30 02:59:13;;;;;;;;;;;8.70;99.90;;;;;;4999973;28;20573;-85
2022/09/30 03:01:40;;;;;;;;;;;8.70;99.90;;;;;;5001440;28;19996;-83
2022/09/30 03:04:11;;;;;;;;;;;8.70;99.90;;;;;;5000905;28;19918;-85
2022/09/30 03:06:37;;;;;;;;;;;8.70;99.90;;;;;;5000372;28;19916;-83
2022/09/30 03:09:02;;;;;;;;;;;8.70;99.90;;;;;;5001313;28;19909;-85
2022/09/30 03:11:28;;;;;;;;;;;8.70;99.90;;;;;;5001420;28;19913;-86
2022/09/30 03:14:06;;;;;;;;;;;8.70;99.90;;;;;;5018804;28;20352;-85
2022/09/30 03:16:31;;;;;;;;;;;8.70;99.90;;;;;;5001214;28;19913;-85
2022/09/30 03:19:19;;;;;;;;;;;8.70;99.90;;;;;;5000955;28;19949;-83
2022/09/30 03:22:04;;;;;;;;;;;8.70;99.90;;;;;;5000600;28;19936;-83
2022/09/30 03:24:45;;;;;;;;;;;8.80;99.90;;;;;;5000698;28;20000;-83
2022/09/30 03:27:19;;;;;;;;;;;8.80;99.90;;;;;;5001121;28;19916;-85
2022/09/30 03:29:53;;;;;;;;;;;8.80;99.90;;;;;;5001726;28;20000;-85
2022/09/30 03:32:24;;;;;;;;;;;8.80;99.90;;;;;;5001579;28;20262;-85
2022/09/30 03:34:50;;;;;;;;;;;8.80;99.90;;;;;;5018654;28;19972;-85
2022/09/30 03:37:22;;;;;;;;;;;8.80;99.90;;;;;;5001362;28;19948;-83
2022/09/30 03:39:48;;;;;;;;;;;8.80;99.90;;;;;;5000660;28;19909;-85
2022/09/30 03:42:18;;;;;;;;;;;8.90;99.90;;;;;;5018247;28;20387;-82
2022/09/30 03:44:46;;;;;;;;;;;8.90;99.90;;;;;;4999089;28;19910;-82
2022/09/30 03:47:13;;;;;;;;;;;8.90;99.90;;;;;;4997424;28;19914;-82
2022/09/30 03:49:43;;;;;;;;;;;8.90;99.90;;;;;;5015208;28;19916;-83
2022/09/30 03:52:11;;;;;;;;;;;8.90;99.90;;;;;;4997303;28;19914;-83
2022/09/30 03:54:56;;;;;;;;;;;8.90;99.90;;;;;;5014959;28;19910;-83
2022/09/30 03:57:22;;;;;;;;;;;8.80;99.90;;;;;;4997385;28;20000;-82
2022/09/30 03:59:47;;;;;;;;;;;8.80;99.90;;;;;;4997413;28;19949;-84
2022/09/30 04:02:13;;;;;;;;;;;8.80;99.90;;;;;;5015087;28;20276;-84
2022/09/30 04:04:39;;;;;;;;;;;8.80;99.90;;;;;;4997249;28;19917;-83
2022/09/30 04:07:05;;;;;;;;;;;8.80;99.90;;;;;;5014662;28;20368;-84
2022/09/30 04:09:30;;;;;;;;;;;8.80;99.90;;;;;;4997393;28;19959;-83
2022/09/30 04:11:56;;;;;;;;;;;8.80;99.90;;;;;;4997092;28;20445;-82
2022/09/30 04:14:21;;;;;;;;;;;8.80;99.90;;;;;;4997073;28;19929;-84
2022/09/30 04:16:47;;;;;;;;;;;8.80;99.90;;;;;;4996829;28;19949;-83
2022/09/30 04:19:12;;;;;;;;;;;8.70;99.90;;;;;;4997083;28;19964;-82
2022/09/30 04:21:38;;;;;;;;;;;8.70;99.90;;;;;;4996886;28;19909;-84
2022/09/30 04:24:03;;;;;;;;;;;8.60;99.90;;;;;;5014610;28;19917;-83
2022/09/30 04:26:29;;;;;;;;;;;8.60;99.90;;;;;;4996750;28;19909;-83
2022/09/30 04:28:57;;;;;;;;;;;8.50;99.90;;;;;;5014677;28;19910;-84
2022/09/30 04:31:23;;;;;;;;;;;8.50;99.90;;;;;;4996796;28;19913;-83
2022/09/30 04:33:49;;;;;;;;;;;8.40;99.90;;;;;;4996685;28;19910;-82
2022/09/30 04:36:15;;;;;;;;;;;8.40;99.90;;;;;;5014288;28;20365;-82
2022/09/30 04:38:40;;;;;;;;;;;8.40;99.90;;;;;;5014457;28;19976;-83
2022/09/30 04:41:06;;;;;;;;;;;8.40;99.90;;;;;;4996719;28;19910;-83
2022/09/30 04:43:33;;;;;;;;;;;8.40;99.90;;;;;;4996727;28;20353;-83
2022/09/30 04:45:58;;;;;;;;;;;8.40;99.90;;;;;;4996590;28;19910;-83
2022/09/30 04:48:24;;;;;;;;;;;8.40;99.90;;;;;;4996655;28;19909;-82
2022/09/30 04:50:49;;;;;;;;;;;8.40;99.90;;;;;;4996756;28;19960;-84
2022/09/30 04:53:17;;;;;;;;;;;8.40;99.90;;;;;;4996293;28;19909;-83
2022/09/30 04:55:44;;;;;;;;;;;8.40;99.90;;;;;;5013893;28;19914;-85
2022/09/30 04:58:09;;;;;;;;;;;8.40;99.90;;;;;;5014311;28;20412;-83
2022/09/30 05:00:35;;;;;;;;;;;8.40;99.90;;;;;;4996487;28;19910;-82
2022/09/30 05:03:00;;;;;;;;;;;8.50;99.90;;;;;;4996232;28;19921;-83
2022/09/30 05:05:26;;;;;;;;;;;8.50;99.90;;;;;;4996078;28;19976;-83
2022/09/30 05:07:51;;;;;;;;;;;8.40;99.90;;;;;;4996218;28;19964;-83
2022/09/30 05:10:17;;;;;;;;;;;8.50;99.90;;;;;;4996320;28;19910;-82
2022/09/30 05:12:44;;;;;;;;;;;8.50;99.90;;;;;;4996174;28;19996;-83
2022/09/30 05:15:09;;;;;;;;;;;8.50;99.90;;;;;;4996127;28;19910;-83
2022/09/30 05:17:35;;;;;;;;;;;8.50;99.90;;;;;;5013769;28;19910;-83
2022/09/30 05:20:00;;;;;;;;;;;8.50;99.90;;;;;;5013800;28;19964;-83
2022/09/30 05:22:27;;;;;;;;;;;8.50;99.90;;;;;;4995568;28;20361;-83
2022/09/30 05:24:54;;;;;;;;;;;8.60;99.90;;;;;;4995996;28;19909;-82
2022/09/30 05:27:21;;;;;;;;;;;8.60;99.90;;;;;;4995800;28;20408;-81
2022/09/30 05:29:46;;;;;;;;;;;8.50;99.90;;;;;;4996047;28;19910;-82
2022/09/30 05:32:12;;;;;;;;;;;8.50;99.90;;;;;;4995912;28;19920;-84
2022/09/30 05:34:37;;;;;;;;;;;8.50;99.90;;;;;;4995843;28;19979;-82
2022/09/30 05:37:04;;;;;;;;;;;8.50;99.90;;;;;;4995328;28;19978;-84
2022/09/30 05:39:29;;;;;;;;;;;8.60;99.90;;;;;;4995527;28;19910;-82
2022/09/30 05:41:55;;;;;;;;;;;8.50;99.90;;;;;;4995486;28;20254;-82
2022/09/30 05:44:21;;;;;;;;;;;8.60;99.90;;;;;;5013010;28;19920;-82
2022/09/30 05:46:46;;;;;;;;;;;8.60;99.90;;;;;;5012673;28;19910;-82
2022/09/30 05:49:12;;;;;;;;;;;8.60;99.90;;;;;;5013032;28;19910;-82
2022/09/30 05:51:37;;;;;;;;;;;8.50;99.90;;;;;;5013244;28;19960;-82
2022/09/30 05:54:03;;;;;;;;;;;8.50;99.90;;;;;;5013002;28;20420;-81
2022/09/30 05:56:28;;;;;;;;;;;8.60;99.90;;;;;;5012679;28;20369;-80
2022/09/30 05:58:54;;;;;;;;;;;8.60;99.90;;;;;;4995278;28;19921;-80
2022/09/30 06:01:20;;;;;;;;;;;8.60;99.90;;;;;;4995073;28;19953;-80
2022/09/30 06:03:46;;;;;;;;;;;8.70;99.90;;;;;;5054104;22;19932;-85
2022/09/30 06:06:13;;;;;;;;;;;8.70;99.90;;;;;;5036395;28;20015;-85
2022/09/30 06:08:39;;;;;;;;;;;8.80;99.90;;;;;;5036848;28;20294;-84
2022/09/30 06:11:12;;;;;;;;;;;8.90;99.90;;;;;;5036332;28;19913;-85
2022/09/30 06:13:38;;;;;;;;;;;8.90;99.90;;;;;;5035860;28;20076;-87
2022/09/30 06:16:04;;;;;;;;;;;8.90;99.90;;;;;;5054054;28;19909;-85
2022/09/30 06:18:30;;;;;;;;;;;9.00;99.90;;;;;;5036275;28;20423;-85
2022/09/30 06:20:56;;;;;;;;;;;9.00;99.90;;;;;;5036495;28;19955;-86
2022/09/30 06:23:22;;;;;;;;;;;9.00;99.90;;;;;;5036296;28;19944;-85
2022/09/30 06:25:51;;;;;;;;;;;9.00;99.90;;;;;;5036660;28;20281;-84
2022/09/30 06:28:17;;;;;;;;;;;9.00;99.90;;;;;;5037093;28;19909;-85
2022/09/30 06:30:43;;;;;;;;;;;9.00;99.90;;;;;;5036341;28;19919;-84
2022/09/30 06:33:08;;;;;;;;;;;9.10;99.90;;;;;;5037467;28;19916;-84
2022/09/30 06:35:34;;;;;;;;;;;9.10;99.90;;;;;;5037937;28;19908;-86
2022/09/30 06:37:59;;;;;;;;;;;9.10;99.90;;;;;;5038144;28;20050;-84
2022/09/30 06:40:25;;;;;;;;;;;9.20;99.90;;;;;;5055950;28;20388;-84
2022/09/30 06:42:52;;;;;;;;;;;9.20;99.90;;;;;;5074749;28;19909;-86
2022/09/30 06:45:18;;;;;;;;;;;9.30;99.90;;;;;;5076929;28;19921;-85
2022/09/30 06:47:45;;;;;;;;;;;9.30;99.90;;;;;;5075503;28;19909;-85
2022/09/30 06:50:12;;;;;;;;;;;9.30;99.90;;;;;;5062043;28;19908;-86
2022/09/30 06:52:38;;;;;;;;;;;9.40;99.90;;;;;;5048352;28;20428;-85
2022/09/30 06:55:04;;;;;;;;;;;9.40;99.90;;;;;;5037780;28;19944;-87
2022/09/30 06:57:29;;;;;;;;;;;9.50;99.90;;;;;;5037661;28;19909;-88
2022/09/30 06:59:55;;;;;;;;;;;9.50;99.90;;;;;;5055559;28;19909;-87
2022/09/30 07:02:20;;;;;;;;;;;9.60;99.90;;;;;;5055234;28;19913;-87
2022/09/30 07:04:46;;;;;;;;;;;9.70;99.90;;;;;;5037697;28;19940;-87
2022/09/30 07:07:12;;;;;;;;;;;9.80;99.90;;;;;;5037469;28;19909;-86
2022/09/30 07:09:37;;;;;;;;;;;9.90;99.90;;;;;;5037677;28;19956;-87
2022/09/30 07:12:05;;;;;;;;;;;9.90;99.90;;;;;;5037322;28;20359;-86
2022/09/30 07:14:31;;;;;;;;;;;10.00;99.90;;;;;;5037515;28;19908;-87
2022/09/30 07:16:57;;;;;;;;;;;10.10;99.90;;;;;;5037052;28;19909;-87
2022/09/30 07:19:22;;;;;;;;;;;10.10;99.90;;;;;;5055425;28;19913;-85
2022/09/30 07:21:48;;;;;;;;;;;10.20;99.90;;;;;;5037506;28;19955;-84
2022/09/30 07:24:14;;;;;;;;;;;10.30;99.90;;;;;;5037564;28;20558;-85
2022/09/30 07:26:40;;;;;;;;;;;10.30;99.90;;;;;;5037449;28;20036;-84
2022/09/30 07:29:06;;;;;;;;;;;10.30;99.90;;;;;;5037415;28;19939;-85
2022/09/30 07:31:31;;;;;;;;;;;10.40;99.90;;;;;;5037165;28;20332;-86
2022/09/30 07:33:57;;;;;;;;;;;10.50;99.90;;;;;;5037440;28;20008;-84
2022/09/30 07:36:28;;;;;;;;;;;10.60;99.90;;;;;;5037138;28;19952;-85
2022/09/30 07:38:54;;;;;;;;;;;10.60;99.90;;;;;;5037289;28;19958;-85
2022/09/30 07:41:23;;;;;;;;;;;10.70;99.90;;;;;;5037084;28;19912;-85
2022/09/30 07:43:49;;;;;;;;;;;10.80;99.90;;;;;;5036784;28;20007;-84
2022/09/30 07:46:19;;;;;;;;;;;10.90;99.90;;;;;;5036840;28;19991;-84
2022/09/30 07:48:47;;;;;;;;;;;10.90;99.90;;;;;;5037306;28;20386;-84
2022/09/30 07:51:33;;;;;;;;;;;11.00;99.90;;;;;;5036967;28;19996;-85
2022/09/30 07:54:00;;;;;;;;;;;11.10;99.90;;;;;;5036393;28;19963;-85
2022/09/30 07:56:25;;;;;;;;;;;11.10;99.90;;;;;;5036667;28;20413;-85
2022/09/30 07:58:59;;;;;;;;;;;11.20;99.90;;;;;;5037121;28;19913;-84
2022/09/30 08:01:25;;;;;;;;;;;11.30;99.90;;;;;;5036960;28;19923;-85
2022/09/30 08:03:52;;;;;;;;;;;11.30;99.90;;;;;;5036755;28;19917;-85
2022/09/30 08:06:18;;;;;;;;;;;11.40;99.90;;;;;;5036498;28;19913;-84
2022/09/30 08:08:44;;;;;;;;;;;11.50;99.90;;;;;;5036709;28;19916;-85
2022/09/30 08:11:10;;;;;;;;;;;11.50;99.90;;;;;;5036869;28;20358;-84
2022/09/30 08:13:36;;;;;;;;;;;11.50;99.90;;;;;;5036423;28;19913;-85
2022/09/30 08:16:01;;;;;;;;;;;11.60;99.90;;;;;;5036026;28;20071;-84
2022/09/30 08:18:27;;;;;;;;;;;11.70;99.90;;;;;;5036518;28;20273;-85
2022/09/30 08:20:53;;;;;;;;;;;11.80;99.90;;;;;;5036428;28;19947;-86
2022/09/30 08:23:18;;;;;;;;;;;11.90;99.90;;;;;;5036434;28;19944;-84
2022/09/30 08:25:43;;;;;;;;;;;11.90;99.90;;;;;;5036207;28;20360;-84
2022/09/30 08:28:09;;;;;;;;;;;12.00;99.90;;;;;;5036148;28;19913;-85
2022/09/30 08:30:35;;;;;;;;;;;12.10;99.90;;;;;;5036215;28;20383;-84
2022/09/30 08:33:00;;;;;;;;;;;12.20;99.90;;;;;;5036043;28;19909;-84
2022/09/30 08:35:26;;;;;;;;;;;12.30;99.90;;;;;;5036143;28;19979;-85
2022/09/30 08:37:53;;;;;;;;;;;12.40;99.90;;;;;;5036054;28;19919;-85
2022/09/30 08:40:26;;;;;;;;;;;12.40;99.90;;;;;;5036094;28;19916;-84
2022/09/30 08:43:10;;;;;;;;;;;12.40;99.90;;;;;;5035798;28;19909;-85
2022/09/30 08:45:36;;;;;;;;;;;12.50;99.90;;;;;;5035661;28;19909;-87
2022/09/30 08:48:01;;;;;;;;;;;12.60;99.90;;;;;;5035954;28;19995;-87
2022/09/30 08:50:45;;;;;;;;;;;12.70;99.90;;;;;;5035925;28;20003;-84
2022/09/30 08:53:14;;;;;;;;;;;12.70;99.90;;;;;;5035778;28;20368;-85
2022/09/30 08:55:44;;;;;;;;;;;12.80;99.90;;;;;;5035251;28;19963;-86
2022/09/30 08:58:15;;;;;;;;;;;12.90;99.90;;;;;;5035813;28;19915;-86
2022/09/30 09:00:41;;;;;;;;;;;13.00;99.90;;;;;;5035789;28;20426;-84
2022/09/30 09:03:10;;;;;;;;;;;13.10;99.90;;;;;;5035444;28;19924;-84
2022/09/30 09:05:36;;;;;;;;;;;13.20;99.90;;;;;;5035610;28;19909;-89
2022/09/30 09:08:16;;;;;;;;;;;13.20;99.90;;;;;;5035726;28;19915;-84
2022/09/30 09:10:49;;;;;;;;;;;13.40;99.90;;;;;;5035823;28;20439;-84
2022/09/30 09:13:33;;;;;;;;;;;13.50;99.90;;;;;;5054986;28;20002;-85
2022/09/30 09:15:58;;;;;;;;;;;13.60;99.90;;;;;;5036427;28;19913;-85
2022/09/30 09:19:02;;;;;;;;;;;13.70;99.90;;;;;;5053371;28;20322;-86
2022/09/30 09:21:48;;;;;;;;;;;13.80;99.90;;;;;;4975176;28;20354;-88
2022/09/30 09:24:18;;;;;;;;;;;13.90;99.90;;;;;;4990798;28;19921;-88
2022/09/30 09:26:43;;;;;;;;;;;13.90;99.90;;;;;;5012697;28;19909;-87
2022/09/30 09:29:18;;;;;;;;;;;14.10;99.90;;;;;;5034919;28;19932;-87
2022/09/30 09:31:44;;;;;;;;;;;14.20;99.90;;;;;;5034731;28;19936;-87
2022/09/30 09:34:10;;;;;;;;;;;14.30;99.90;;;;;;5052708;28;19909;-89
2022/09/30 09:36:50;;;;;;;;;;;14.40;99.90;;;;;;5034566;28;19932;-87
2022/09/30 09:39:18;;;;;;;;;;;14.60;99.90;;;;;;5052621;28;19909;-88
2022/09/30 09:41:44;;;;;;;;;;;14.50;99.90;;;;;;5034763;28;19913;-87
2022/09/30 09:44:09;;;;;;;;;;;14.60;99.90;;;;;;5034591;28;19909;-87
2022/09/30 09:46:44;;;;;;;;;;;14.90;99.90;;;;;;5034535;28;19908;-86
2022/09/30 09:49:19;;;;;;;;;;;15.70;99.90;;;;;;5035227;28;19959;-86
2022/09/30 09:52:04;;;;;;;;;;;16.40;99.90;;;;;;5035229;28;19920;-85
2022/09/30 09:54:31;;;;;;;;;;;16.40;99.90;;;;;;5034837;28;20023;-88
2022/09/30 09:57:09;;;;;;;;;;;16.40;99.90;;;;;;5035625;28;19913;-88
2022/09/30 09:59:35;;;;;;;;;;;16.30;99.90;;;;;;5034498;28;19909;-88
2022/09/30 10:02:01;;;;;;;;;;;16.30;99.90;;;;;;5054014;28;20395;-87
2022/09/30 10:04:29;;;;;;;;;;;16.20;99.90;;;;;;5049117;28;19983;-86
2022/09/30 10:06:58;;;;;;;;;;;16.30;99.90;;;;;;5036298;28;20426;-88
2022/09/30 10:09:27;;;;;;;;;;;16.30;99.90;;;;;;5038679;28;19932;-88
2022/09/30 10:12:04;;;;;;;;;;;16.40;99.90;;;;;;5048431;28;19943;-86
2022/09/30 10:14:36;;;;;;;;;;;16.40;99.90;;;;;;5056963;28;19915;-87
2022/09/30 10:17:16;;;;;;;;;;;16.50;99.90;;;;;;5072563;28;19909;-86
2022/09/30 10:19:47;;;;;;;;;;;16.50;99.90;;;;;;5042917;28;20295;-86
2022/09/30 10:22:13;;;;;;;;;;;16.60;99.90;;;;;;5022365;28;19920;-88
2022/09/30 10:24:39;;;;;;;;;;;16.70;99.90;;;;;;5049109;28;19912;-86
2022/09/30 10:27:23;;;;;;;;;;;16.60;99.90;;;;;;5059107;28;19915;-86
2022/09/30 10:29:49;;;;;;;;;;;16.80;99.90;;;;;;5041044;28;19908;-86
2022/09/30 10:32:14;;;;;;;;;;;16.80;99.90;;;;;;5039540;28;19917;-86
2022/09/30 10:34:42;;;;;;;;;;;17.00;99.90;;;;;;5038856;28;19913;-85
2022/09/30 10:37:15;;;;;;;;;;;17.10;99.90;;;;;;5037974;28;19915;-88
2022/09/30 10:39:42;;;;;;;;;;;17.10;99.90;;;;;;5038057;28;19915;-88
2022/09/30 10:42:14;;;;;;;;;;;17.20;99.90;;;;;;5038099;28;19916;-85
2022/09/30 10:44:44;;;;;;;;;;;17.30;99.90;;;;;;5038269;28;20003;-85
2022/09/30 10:47:13;;;;;;;;;;;17.20;99.90;;;;;;5038057;28;19916;-84
2022/09/30 10:49:45;;;;;;;;;;;17.30;99.90;;;;;;5037983;28;20359;-86
2022/09/30 10:52:22;;;;;;;;;;;17.30;99.90;;;;;;5055864;28;19913;-88
2022/09/30 10:54:52;;;;;;;;;;;17.40;99.90;;;;;;5038736;28;19935;-88
2022/09/30 10:57:30;;;;;;;;;;;17.50;99.90;;;;;;5038416;28;19962;-88
2022/09/30 11:00:00;;;;;;;;;;;17.30;99.90;;;;;;5038200;28;20337;-87
2022/09/30 11:02:26;;;;;;;;;;;17.50;99.90;;;;;;5037472;28;19919;-85
2022/09/30 11:04:57;;;;;;;;;;;17.60;99.90;;;;;;5038356;28;19999;-86
2022/09/30 11:07:44;;;;;;;;;;;17.80;99.90;;;;;;5061320;28;19909;-86
2022/09/30 11:10:27;;;;;;;;;;;18.00;99.90;;;;;;5068911;28;20050;-86
2022/09/30 11:13:01;;;;;;;;;;;18.00;99.90;;;;;;5039361;28;19913;-86
2022/09/30 11:15:29;;;;;;;;;;;18.10;99.90;;;;;;5039532;28;19973;-88
2022/09/30 11:17:54;;;;;;;;;;;18.10;99.90;;;;;;5037086;28;19908;-88
2022/09/30 11:20:20;;;;;;;;;;;18.40;99.90;;;;;;5036847;28;19916;-89
2022/09/30 11:23:10;;;;;;;;;;;18.70;99.90;;;;;;5037234;28;19987;-87
2022/09/30 11:25:41;;;;;;;;;;;19.70;99.90;;;;;;5037150;28;20388;-88
2022/09/30 11:28:17;;;;;;;;;;;20.80;99.90;;;;;;5037036;28;19969;-88
2022/09/30 11:30:43;;;;;;;;;;;20.10;99.90;;;;;;5055109;28;19916;-85
2022/09/30 11:33:19;;;;;;;;;;;19.20;99.90;;;;;;5037259;28;20296;-88
2022/09/30 11:35:44;;;;;;;;;;;18.60;99.90;;;;;;5036846;28;20058;-88
2022/09/30 11:38:16;;;;;;;;;;;18.30;99.90;;;;;;5036906;28;19944;-87
2022/09/30 11:41:01;;;;;;;;;;;18.00;99.90;;;;;;5036983;28;19916;-89
2022/09/30 11:43:26;;;;;;;;;;;17.90;99.90;;;;;;5037337;28;19940;-86
2022/09/30 11:46:16;;;;;;;;;;;17.80;99.90;;;;;;5047287;28;19908;-86
2022/09/30 11:48:48;;;;;;;;;;;17.90;99.90;;;;;;5056605;28;19908;-86
2022/09/30 11:51:25;;;;;;;;;;;18.10;99.90;;;;;;5075106;28;19913;-86
2022/09/30 11:53:51;;;;;;;;;;;18.20;99.90;;;;;;5057827;28;19908;-86
2022/09/30 11:56:27;;;;;;;;;;;18.20;99.90;;;;;;5039616;28;20050;-87
2022/09/30 11:58:54;;;;;;;;;;;18.30;99.90;;;;;;5042422;28;19952;-85
2022/09/30 12:01:20;;;;;;;;;;;18.40;99.90;;;;;;5073561;28;19932;-86
2022/09/30 12:03:58;;;;;;;;;;;18.30;99.90;;;;;;5079859;22;19925;-82
2022/09/30 12:06:30;;;;;;;;;;;18.40;99.90;;;;;;5034126;28;19910;-81
2022/09/30 12:08:58;;;;;;;;;;;18.50;99.90;;;;;;5033021;28;19913;-82
2022/09/30 12:11:30;;;;;;;;;;;18.40;99.90;;;;;;5033033;28;19959;-81
2022/09/30 12:13:57;;;;;;;;;;;18.30;99.90;;;;;;5032872;28;19910;-82
2022/09/30 12:16:24;;;;;;;;;;;18.40;99.90;;;;;;5032540;28;19909;-82
2022/09/30 12:19:08;;;;;;;;;;;18.50;99.90;;;;;;5032833;28;19913;-79
2022/09/30 12:21:38;;;;;;;;;;;18.80;99.90;;;;;;5032604;28;19913;-80
2022/09/30 12:24:10;;;;;;;;;;;19.00;99.90;;;;;;5032623;28;19909;-79
2022/09/30 12:26:36;;;;;;;;;;;19.00;99.90;;;;;;5033644;28;19964;-82
2022/09/30 12:31:59;;;;;;;;;;;19.10;99.90;;;;;;5033129;28;20024;-82
2022/09/30 12:34:30;;;;;;;;;;;19.10;99.90;;;;;;5032584;28;19920;-81
2022/09/30 12:36:59;;;;;;;;;;;19.00;99.90;;;;;;5032890;28;19909;-79
2022/09/30 12:39:27;;;;;;;;;;;19.00;99.90;;;;;;5034043;28;19951;-79
2022/09/30 12:42:14;;;;;;;;;;;19.10;99.90;;;;;;5032431;28;19913;-81
2022/09/30 12:44:50;;;;;;;;;;;19.10;99.90;;;;;;5033965;28;19916;-79
2022/09/30 12:47:29;;;;;;;;;;;19.10;99.90;;;;;;5032269;28;19913;-79
2022/09/30 12:49:55;;;;;;;;;;;19.20;99.90;;;;;;5033659;28;19909;-81
2022/09/30 12:52:21;;;;;;;;;;;19.30;99.90;;;;;;5032220;28;20296;-81
2022/09/30 12:54:52;;;;;;;;;;;19.30;99.90;;;;;;5033369;28;19909;-81
2022/09/30 12:57:28;;;;;;;;;;;19.30;99.90;;;;;;5031870;28;19909;-78
2022/09/30 13:00:01;;;;;;;;;;;19.20;99.90;;;;;;5032288;28;20303;-81
2022/09/30 13:02:34;;;;;;;;;;;19.20;99.90;;;;;;5033301;28;19936;-81
2022/09/30 13:05:19;;;;;;;;;;;19.10;99.90;;;;;;5032053;28;19917;-80
2022/09/30 13:08:03;;;;;;;;;;;19.10;99.90;;;;;;5031890;28;19909;-81
2022/09/30 13:10:32;;;;;;;;;;;19.20;99.90;;;;;;5033132;28;19915;-81
2022/09/30 13:13:16;;;;;;;;;;;19.20;99.90;;;;;;5031799;28;19909;-81
2022/09/30 13:15:43;;;;;;;;;;;19.50;99.90;;;;;;5032809;28;19951;-80
2022/09/30 13:18:30;;;;;;;;;;;19.80;99.90;;;;;;5031671;28;19909;-82
2022/09/30 13:21:15;;;;;;;;;;;20.00;99.90;;;;;;5031831;28;20361;-81
2022/09/30 13:23:40;;;;;;;;;;;20.30;99.90;;;;;;5032870;28;20380;-82
2022/09/30 13:26:22;;;;;;;;;;;20.50;99.90;;;;;;5031382;28;19909;-81
2022/09/30 13:28:48;;;;;;;;;;;20.30;99.90;;;;;;5031602;28;19909;-82
2022/09/30 13:31:19;;;;;;;;;;;20.40;99.90;;;;;;5032718;28;20479;-82
2022/09/30 13:33:46;;;;;;;;;;;20.10;99.90;;;;;;5032681;28;19939;-82
2022/09/30 13:36:24;;;;;;;;;;;20.10;99.90;;;;;;5032689;28;19916;-82
2022/09/30 13:39:04;;;;;;;;;;;19.70;99.90;;;;;;5031886;28;19913;-80
2022/09/30 13:41:31;;;;;;;;;;;19.80;99.90;;;;;;5031353;28;19963;-81
2022/09/30 13:44:06;;;;;;;;;;;20.00;99.90;;;;;;5032812;28;20292;-81
2022/09/30 13:46:34;;;;;;;;;;;20.20;99.90;;;;;;5032642;28;19936;-81
2022/09/30 13:49:03;;;;;;;;;;;20.20;99.90;;;;;;5031266;28;19913;-81
2022/09/30 13:51:29;;;;;;;;;;;20.10;99.90;;;;;;5031242;28;19956;-81
2022/09/30 13:53:59;;;;;;;;;;;20.20;99.90;;;;;;5032072;28;20301;-81
2022/09/30 13:56:29;;;;;;;;;;;20.50;99.90;;;;;;5031334;28;20280;-81
2022/09/30 13:58:58;;;;;;;;;;;20.80;98.60;;;;;;5032890;28;20351;-81
2022/09/30 14:01:39;;;;;;;;;;;21.20;98.60;;;;;;5032726;28;19909;-82
2022/09/30 14:04:23;;;;;;;;;;;22.00;96.80;;;;;;5031362;28;20403;-81
2022/09/30 14:06:51;;;;;;;;;;;23.10;93.50;;;;;;5032530;28;20394;-81
2022/09/30 14:09:36;;;;;;;;;;;22.80;91.70;;;;;;5032437;28;19909;-81
2022/09/30 14:12:12;;;;;;;;;;;22.80;88.20;;;;;;5032450;28;19920;-81
2022/09/30 14:14:37;;;;;;;;;;;24.80;90.40;;;;;;5031186;28;19910;-81
2022/09/30 14:17:18;;;;;;;;;;;27.40;85.20;;;;;;5030995;28;19915;-82
2022/09/30 14:19:59;;;;;;;;;;;29.50;68.20;;;;;;5031188;28;19909;-81
2022/09/30 14:22:27;;;;;;;;;;;31.70;59.80;;;;;;5031004;28;19913;-83
2022/09/30 14:24:53;;;;;;;;;;;33.30;51.20;;;;;;5032347;28;19909;-82
2022/09/30 14:27:25;;;;;;;;;;;33.70;45.40;;;;;;5032458;28;19909;-82
2022/09/30 14:29:51;;;;;;;;;;;33.90;41.80;;;;;;5030978;28;20317;-82
2022/09/30 14:32:19;;;;;;;;;;;34.00;42.40;;;;;;5030843;28;19996;-80
2022/09/30 14:34:45;;;;;;;;;;;34.00;40.80;;;;;;5032591;28;19909;-80
2022/09/30 14:37:13;;;;;;;;;;;32.80;40.10;;;;;;5030658;28;20003;-82
2022/09/30 14:39:39;;;;;;;;;;;31.10;40.50;;;;;;5032391;28;20357;-82
2022/09/30 14:42:05;;;;;;;;;;;29.50;43.40;;;;;;5030699;28;19944;-82
2022/09/30 14:44:33;;;;;;;;;;;28.30;44.00;;;;;;5030708;28;19909;-81
2022/09/30 14:47:00;;;;;;;;;;;27.40;46.60;;;;;;5032243;28;19917;-82